sensor_id;sensor_type;location;lat;lon;timestamp;pressure;altitude;pressure_sealevel;temperature;humidity
78014;BME280;67222;50.182;8.734;2023-07-24T04:31:10;99481.19;;;17.23;85.03
78014;BME280;67222;50.182;8.734;2023-07-24T04:33:35;99484.94;;;17.27;86.01
78014;BME280;67222;50.182;8.734;2023-07-24T04:36:00;99494.66;;;17.38;85.21
78014;BME280;67222;50.182;8.734;2023-07-24T04:38:26;99500.03;;;17.53;83.39
78014;BME280;67222;50.182;8.734;2023-07-24T04:40:51;99508.91;;;17.64;81.79
78014;BME280;67222;50.182;8.734;2023-07-24T04:43:16;99520.53;;;17.70;79.91
78014;BME280;67222;50.182;8.734;2023-07-24T04:45:42;99509.19;;;17.73;78.81
78014;BME280;67222;50.182;8.734;2023-07-24T04:48:07;99510.00;;;17.73;78.39
78014;BME280;67222;50.182;8.734;2023-07-24T04:50:32;99512.44;;;17.70;79.98
78014;BME280;67222;50.182;8.734;2023-07-24T04:52:58;99515.66;;;17.77;80.13
78014;BME280;67222;50.182;8.734;2023-07-24T04:55:23;99512.41;;;17.85;79.46
78014;BME280;67222;50.182;8.734;2023-07-24T04:57:49;99503.22;;;17.81;78.44
78014;BME280;67222;50.182;8.734;2023-07-24T05:00:14;99512.38;;;17.90;78.40
78014;BME280;67222;50.182;8.734;2023-07-24T05:02:40;99514.53;;;17.93;79.51
78014;BME280;67222;50.182;8.734;2023-07-24T05:05:05;99507.22;;;18.04;78.95
78014;BME280;67222;50.182;8.734;2023-07-24T05:07:31;99503.16;;;18.06;77.90
78014;BME280;67222;50.182;8.734;2023-07-24T05:09:56;99506.94;;;18.05;77.25
78014;BME280;67222;50.182;8.734;2023-07-24T05:12:21;99508.53;;;18.11;77.74
78014;BME280;67222;50.182;8.734;2023-07-24T05:14:46;99498.00;;;18.15;76.62
78014;BME280;67222;50.182;8.734;2023-07-24T05:17:12;99495.28;;;18.20;75.00
78014;BME280;67222;50.182;8.734;2023-07-24T05:19:37;99500.41;;;18.16;77.06
78014;BME280;67222;50.182;8.734;2023-07-24T05:22:03;99513.06;;;18.21;77.55
78014;BME280;67222;50.182;8.734;2023-07-24T05:24:28;99512.78;;;18.28;76.40
78014;BME280;67222;50.182;8.734;2023-07-24T05:26:53;99525.97;;;18.34;77.60
78014;BME280;67222;50.182;8.734;2023-07-24T05:29:19;99520.31;;;18.36;79.15
78014;BME280;67222;50.182;8.734;2023-07-24T05:31:44;99515.78;;;18.26;79.39
78014;BME280;67222;50.182;8.734;2023-07-24T05:34:09;99514.72;;;18.17;79.71
78014;BME280;67222;50.182;8.734;2023-07-24T05:36:35;99523.63;;;18.17;80.75
78014;BME280;67222;50.182;8.734;2023-07-24T05:39:00;99529.47;;;18.40;78.99
78014;BME280;67222;50.182;8.734;2023-07-24T05:41:25;99524.63;;;18.37;78.64
78014;BME280;67222;50.182;8.734;2023-07-24T05:43:50;99514.31;;;18.49;78.88
78014;BME280;67222;50.182;8.734;2023-07-24T05:46:16;99488.09;;;18.55;78.58
78014;BME280;67222;50.182;8.734;2023-07-24T05:48:41;99478.91;;;18.56;78.06
78014;BME280;67222;50.182;8.734;2023-07-24T05:51:06;99472.78;;;18.45;77.19
78014;BME280;67222;50.182;8.734;2023-07-24T05:53:32;99477.88;;;18.46;77.56
78014;BME280;67222;50.182;8.734;2023-07-24T05:56:01;99481.81;;;18.69;77.03
78014;BME280;67222;50.182;8.734;2023-07-24T05:58:27;99487.16;;;18.80;75.94
78014;BME280;67222;50.182;8.734;2023-07-24T06:00:52;99482.75;;;18.89;75.14
78014;BME280;67222;50.182;8.734;2023-07-24T06:03:18;99488.66;;;18.96;75.68
78014;BME280;67222;50.182;8.734;2023-07-24T06:05:43;99489.44;;;19.01;75.57
78014;BME280;67222;50.182;8.734;2023-07-24T06:08:08;99496.69;;;19.06;75.64
78014;BME280;67222;50.182;8.734;2023-07-24T06:10:36;99486.41;;;19.08;75.44
78014;BME280;67222;50.182;8.734;2023-07-24T06:13:01;99478.53;;;19.12;74.45
78014;BME280;67222;50.182;8.734;2023-07-24T06:15:26;99485.84;;;19.11;74.78
78014;BME280;67222;50.182;8.734;2023-07-24T06:17:52;99489.34;;;19.12;74.50
78014;BME280;67222;50.182;8.734;2023-07-24T06:20:17;99490.94;;;19.13;74.12
78014;BME280;67222;50.182;8.734;2023-07-24T06:22:42;99489.59;;;19.15;73.57
78014;BME280;67222;50.182;8.734;2023-07-24T06:25:08;99490.72;;;19.09;73.72
78014;BME280;67222;50.182;8.734;2023-07-24T06:27:33;99494.16;;;19.20;74.67
78014;BME280;67222;50.182;8.734;2023-07-24T06:29:58;99492.78;;;19.22;74.53
78014;BME280;67222;50.182;8.734;2023-07-24T06:32:23;99488.63;;;19.35;73.92
78014;BME280;67222;50.182;8.734;2023-07-24T06:34:49;99488.06;;;19.33;73.86
78014;BME280;67222;50.182;8.734;2023-07-24T06:37:14;99494.16;;;19.49;74.18
78014;BME280;67222;50.182;8.734;2023-07-24T06:39:39;99482.25;;;19.55;73.14
78014;BME280;67222;50.182;8.734;2023-07-24T06:42:05;99482.94;;;19.65;72.46
78014;BME280;67222;50.182;8.734;2023-07-24T06:44:30;99472.81;;;19.76;72.80
78014;BME280;67222;50.182;8.734;2023-07-24T06:46:55;99486.28;;;19.81;70.24
78014;BME280;67222;50.182;8.734;2023-07-24T06:49:21;99489.78;;;19.82;70.35
78014;BME280;67222;50.182;8.734;2023-07-24T06:51:46;99486.78;;;19.83;69.57
78014;BME280;67222;50.182;8.734;2023-07-24T06:54:11;99483.47;;;19.91;68.02
78014;BME280;67222;50.182;8.734;2023-07-24T06:56:36;99479.38;;;19.94;67.63
78014;BME280;67222;50.182;8.734;2023-07-24T06:59:02;99504.41;;;20.05;69.93
78014;BME280;67222;50.182;8.734;2023-07-24T07:01:27;99502.00;;;20.03;67.76
78014;BME280;67222;50.182;8.734;2023-07-24T07:03:53;99489.34;;;19.99;68.76
78014;BME280;67222;50.182;8.734;2023-07-24T07:06:18;99490.28;;;20.08;68.03
78014;BME280;67222;50.182;8.734;2023-07-24T07:08:43;99493.78;;;20.13;67.44
78014;BME280;67222;50.182;8.734;2023-07-24T07:11:08;99494.22;;;20.20;68.07
78014;BME280;67222;50.182;8.734;2023-07-24T07:13:34;99493.34;;;20.25;68.14
78014;BME280;67222;50.182;8.734;2023-07-24T07:15:59;99493.81;;;20.32;67.51
78014;BME280;67222;50.182;8.734;2023-07-24T07:18:24;99484.91;;;20.50;67.11
78014;BME280;67222;50.182;8.734;2023-07-24T07:20:51;99488.88;;;20.58;67.63
78014;BME280;67222;50.182;8.734;2023-07-24T07:23:17;99487.78;;;20.59;65.45
78014;BME280;67222;50.182;8.734;2023-07-24T07:25:43;99487.13;;;20.67;66.51
78014;BME280;67222;50.182;8.734;2023-07-24T07:28:10;99467.09;;;20.82;65.62
78014;BME280;67222;50.182;8.734;2023-07-24T07:30:36;99464.66;;;20.99;61.85
78014;BME280;67222;50.182;8.734;2023-07-24T07:33:01;99465.41;;;21.05;63.00
78014;BME280;67222;50.182;8.734;2023-07-24T07:35:26;99464.59;;;21.04;60.91
78014;BME280;67222;50.182;8.734;2023-07-24T07:37:52;99453.31;;;20.97;61.82
78014;BME280;67222;50.182;8.734;2023-07-24T07:40:17;99463.75;;;21.23;64.14
78014;BME280;67222;50.182;8.734;2023-07-24T07:42:42;99456.47;;;21.37;60.69
78014;BME280;67222;50.182;8.734;2023-07-24T07:45:10;99456.25;;;21.33;61.46
78014;BME280;67222;50.182;8.734;2023-07-24T07:47:35;99463.53;;;21.52;60.15
78014;BME280;67222;50.182;8.734;2023-07-24T07:50:01;99452.78;;;21.46;59.32
78014;BME280;67222;50.182;8.734;2023-07-24T07:52:26;99454.81;;;21.68;59.99
78014;BME280;67222;50.182;8.734;2023-07-24T07:54:51;99444.25;;;21.81;61.76
78014;BME280;67222;50.182;8.734;2023-07-24T07:57:16;99441.81;;;21.93;60.12
78014;BME280;67222;50.182;8.734;2023-07-24T07:59:42;99440.81;;;22.02;58.78
78014;BME280;67222;50.182;8.734;2023-07-24T08:02:07;99440.53;;;22.04;59.66
78014;BME280;67222;50.182;8.734;2023-07-24T08:04:33;99446.25;;;22.02;57.81
78014;BME280;67222;50.182;8.734;2023-07-24T08:06:58;99458.53;;;22.00;59.35
78014;BME280;67222;50.182;8.734;2023-07-24T08:09:23;99445.25;;;21.98;58.49
78014;BME280;67222;50.182;8.734;2023-07-24T08:11:49;99448.47;;;22.00;59.01
78014;BME280;67222;50.182;8.734;2023-07-24T08:14:14;99444.16;;;21.99;58.36
78014;BME280;67222;50.182;8.734;2023-07-24T08:16:40;99457.53;;;21.96;58.39
78014;BME280;67222;50.182;8.734;2023-07-24T08:19:05;99449.28;;;22.01;58.86
78014;BME280;67222;50.182;8.734;2023-07-24T08:21:30;99441.56;;;22.08;59.05
78014;BME280;67222;50.182;8.734;2023-07-24T08:23:56;99435.41;;;22.16;58.99
78014;BME280;67222;50.182;8.734;2023-07-24T08:26:22;99438.44;;;22.15;59.08
78014;BME280;67222;50.182;8.734;2023-07-24T08:28:49;99430.97;;;22.20;58.43
78014;BME280;67222;50.182;8.734;2023-07-24T08:31:14;99424.22;;;22.04;58.08
78014;BME280;67222;50.182;8.734;2023-07-24T08:33:40;99424.16;;;22.09;58.47
78014;BME280;67222;50.182;8.734;2023-07-24T08:36:07;99423.75;;;22.16;59.78
78014;BME280;67222;50.182;8.734;2023-07-24T08:38:35;99417.50;;;22.01;59.11
78014;BME280;67222;50.182;8.734;2023-07-24T08:41:02;99413.91;;;22.06;60.09
78014;BME280;67222;50.182;8.734;2023-07-24T08:43:28;99424.31;;;22.26;59.84
78014;BME280;67222;50.182;8.734;2023-07-24T08:45:54;99438.88;;;22.30;57.58
78014;BME280;67222;50.182;8.734;2023-07-24T08:48:20;99425.06;;;22.18;58.62
78014;BME280;67222;50.182;8.734;2023-07-24T08:50:47;99414.34;;;22.35;56.70
78014;BME280;67222;50.182;8.734;2023-07-24T08:53:14;99402.94;;;22.47;58.19
78014;BME280;67222;50.182;8.734;2023-07-24T08:55:40;99398.06;;;22.58;57.68
78014;BME280;67222;50.182;8.734;2023-07-24T08:58:05;99410.41;;;22.64;58.67
78014;BME280;67222;50.182;8.734;2023-07-24T09:00:32;99402.09;;;22.83;57.26
78014;BME280;67222;50.182;8.734;2023-07-24T09:02:57;99404.44;;;22.76;56.81
78014;BME280;67222;50.182;8.734;2023-07-24T09:05:23;99405.88;;;22.95;56.84
78014;BME280;67222;50.182;8.734;2023-07-24T09:07:48;99402.41;;;23.04;55.48
78014;BME280;67222;50.182;8.734;2023-07-24T09:10:14;99408.59;;;22.95;54.96
78014;BME280;67222;50.182;8.734;2023-07-24T09:12:41;99414.69;;;23.01;54.61
78014;BME280;67222;50.182;8.734;2023-07-24T09:15:07;99418.59;;;23.09;54.38
78014;BME280;67222;50.182;8.734;2023-07-24T09:17:32;99412.06;;;23.10;54.52
78014;BME280;67222;50.182;8.734;2023-07-24T09:19:58;99410.44;;;23.09;53.90
78014;BME280;67222;50.182;8.734;2023-07-24T09:22:23;99414.94;;;23.13;53.38
78014;BME280;67222;50.182;8.734;2023-07-24T09:24:56;99413.56;;;23.24;54.22
78014;BME280;67222;50.182;8.734;2023-07-24T09:27:26;99401.25;;;23.27;53.59
78014;BME280;67222;50.182;8.734;2023-07-24T09:29:52;99392.81;;;23.37;54.27
78014;BME280;67222;50.182;8.734;2023-07-24T09:32:25;99381.63;;;23.39;54.46
78014;BME280;67222;50.182;8.734;2023-07-24T09:34:51;99371.38;;;23.36;54.19
78014;BME280;67222;50.182;8.734;2023-07-24T09:37:46;99362.31;;;23.49;53.08
78014;BME280;67222;50.182;8.734;2023-07-24T09:40:13;99349.13;;;23.42;54.76
78014;BME280;67222;50.182;8.734;2023-07-24T09:42:39;99343.84;;;23.37;54.05
78014;BME280;67222;50.182;8.734;2023-07-24T09:45:06;99340.97;;;23.34;55.25
78014;BME280;67222;50.182;8.734;2023-07-24T09:47:33;99332.47;;;23.35;55.79
78014;BME280;67222;50.182;8.734;2023-07-24T09:49:59;99327.38;;;23.42;56.73
78014;BME280;67222;50.182;8.734;2023-07-24T09:52:29;99334.28;;;23.48;55.82
78014;BME280;67222;50.182;8.734;2023-07-24T09:57:24;99334.69;;;23.64;55.36
78014;BME280;67222;50.182;8.734;2023-07-24T09:59:51;99351.66;;;23.70;55.02
78014;BME280;67222;50.182;8.734;2023-07-24T10:02:17;99349.63;;;23.93;54.11
78014;BME280;67222;50.182;8.734;2023-07-24T10:04:43;99340.16;;;23.81;53.56
78014;BME280;67222;50.182;8.734;2023-07-24T10:07:09;99326.38;;;23.95;54.83
78014;BME280;67222;50.182;8.734;2023-07-24T10:09:35;99336.81;;;24.02;54.45
78014;BME280;67222;50.182;8.734;2023-07-24T10:12:02;99342.75;;;24.04;54.16
78014;BME280;67222;50.182;8.734;2023-07-24T10:14:28;99340.84;;;24.22;53.92
78014;BME280;67222;50.182;8.734;2023-07-24T10:16:56;99338.91;;;24.05;54.23
78014;BME280;67222;50.182;8.734;2023-07-24T10:19:21;99333.13;;;24.06;53.46
78014;BME280;67222;50.182;8.734;2023-07-24T10:21:48;99355.53;;;23.86;51.61
78014;BME280;67222;50.182;8.734;2023-07-24T10:24:17;99354.28;;;24.01;54.23
78014;BME280;67222;50.182;8.734;2023-07-24T10:26:43;99361.81;;;24.04;52.57
78014;BME280;67222;50.182;8.734;2023-07-24T10:29:11;99347.41;;;24.03;52.76
78014;BME280;67222;50.182;8.734;2023-07-24T10:31:38;99343.06;;;24.02;51.37
78014;BME280;67222;50.182;8.734;2023-07-24T10:34:07;99348.66;;;24.14;53.67
78014;BME280;67222;50.182;8.734;2023-07-24T10:36:36;99353.63;;;23.95;50.79
78014;BME280;67222;50.182;8.734;2023-07-24T10:39:15;99333.47;;;24.05;51.46
78014;BME280;67222;50.182;8.734;2023-07-24T10:41:40;99340.66;;;24.27;51.98
78014;BME280;67222;50.182;8.734;2023-07-24T10:44:06;99351.91;;;24.25;50.82
78014;BME280;67222;50.182;8.734;2023-07-24T10:46:39;99356.06;;;24.31;51.33
78014;BME280;67222;50.182;8.734;2023-07-24T10:49:05;99343.41;;;24.44;51.14
78014;BME280;67222;50.182;8.734;2023-07-24T10:51:31;99340.38;;;24.45;49.62
78014;BME280;67222;50.182;8.734;2023-07-24T10:54:03;99345.16;;;24.49;48.47
78014;BME280;67222;50.182;8.734;2023-07-24T10:56:28;99340.38;;;24.45;48.04
78014;BME280;67222;50.182;8.734;2023-07-24T10:58:54;99339.09;;;24.34;47.32
78014;BME280;67222;50.182;8.734;2023-07-24T11:01:20;99326.78;;;24.37;47.70
78014;BME280;67222;50.182;8.734;2023-07-24T11:03:46;99339.91;;;24.43;47.04
78014;BME280;67222;50.182;8.734;2023-07-24T11:06:16;99334.41;;;24.52;45.52
78014;BME280;67222;50.182;8.734;2023-07-24T11:08:42;99334.75;;;24.59;44.81
78014;BME280;67222;50.182;8.734;2023-07-24T11:11:08;99326.44;;;24.56;44.41
78014;BME280;67222;50.182;8.734;2023-07-24T11:13:34;99324.66;;;24.42;45.28
78014;BME280;67222;50.182;8.734;2023-07-24T11:16:04;99326.44;;;24.38;46.13
78014;BME280;67222;50.182;8.734;2023-07-24T11:18:30;99323.22;;;24.45;46.15
78014;BME280;67222;50.182;8.734;2023-07-24T11:20:56;99323.22;;;24.45;48.04
78014;BME280;67222;50.182;8.734;2023-07-24T11:23:22;99313.91;;;24.46;47.63
78014;BME280;67222;50.182;8.734;2023-07-24T11:25:52;99306.19;;;24.65;49.36
78014;BME280;67222;50.182;8.734;2023-07-24T11:28:17;99306.97;;;24.74;47.28
78014;BME280;67222;50.182;8.734;2023-07-24T11:30:43;99304.59;;;24.73;48.56
78014;BME280;67222;50.182;8.734;2023-07-24T11:33:10;99304.41;;;24.78;48.56
78014;BME280;67222;50.182;8.734;2023-07-24T11:35:36;99295.03;;;24.88;47.65
78014;BME280;67222;50.182;8.734;2023-07-24T11:38:04;99288.00;;;24.87;48.82
78014;BME280;67222;50.182;8.734;2023-07-24T11:40:35;99296.00;;;25.00;50.09
78014;BME280;67222;50.182;8.734;2023-07-24T11:43:02;99291.94;;;25.15;48.82
78014;BME280;67222;50.182;8.734;2023-07-24T11:45:27;99287.56;;;25.23;48.13
78014;BME280;67222;50.182;8.734;2023-07-24T11:47:52;99284.41;;;25.42;50.43
78014;BME280;67222;50.182;8.734;2023-07-24T11:50:19;99295.63;;;25.49;48.41
78014;BME280;67222;50.182;8.734;2023-07-24T11:52:46;99290.97;;;25.49;48.65
78014;BME280;67222;50.182;8.734;2023-07-24T11:55:17;99273.28;;;25.47;48.19
78014;BME280;67222;50.182;8.734;2023-07-24T11:57:42;99287.28;;;25.45;48.28
78014;BME280;67222;50.182;8.734;2023-07-24T12:00:21;99269.81;;;25.38;47.73
78014;BME280;67222;50.182;8.734;2023-07-24T12:02:47;99274.94;;;25.39;48.62
78014;BME280;67222;50.182;8.734;2023-07-24T12:05:12;99254.31;;;25.29;46.98
78014;BME280;67222;50.182;8.734;2023-07-24T12:07:38;99243.13;;;25.43;49.54
78014;BME280;67222;50.182;8.734;2023-07-24T12:10:05;99251.78;;;25.75;47.48
78014;BME280;67222;50.182;8.734;2023-07-24T12:12:47;99250.19;;;25.94;46.33
78014;BME280;67222;50.182;8.734;2023-07-24T12:15:13;99267.06;;;26.30;45.47
78014;BME280;67222;50.182;8.734;2023-07-24T12:17:39;99239.66;;;26.38;45.14
78014;BME280;67222;50.182;8.734;2023-07-24T12:20:06;99242.00;;;26.61;44.16
78014;BME280;67222;50.182;8.734;2023-07-24T12:22:34;99235.78;;;26.97;45.42
78014;BME280;67222;50.182;8.734;2023-07-24T12:25:00;99243.09;;;27.05;42.35
78014;BME280;67222;50.182;8.734;2023-07-24T12:27:25;99211.06;;;27.18;44.91
78014;BME280;67222;50.182;8.734;2023-07-24T12:29:51;99224.50;;;27.23;41.92
78014;BME280;67222;50.182;8.734;2023-07-24T12:32:17;99213.84;;;27.45;41.42
78014;BME280;67222;50.182;8.734;2023-07-24T12:34:44;99212.72;;;27.46;41.61
78014;BME280;67222;50.182;8.734;2023-07-24T12:37:09;99196.72;;;27.49;40.58
78014;BME280;67222;50.182;8.734;2023-07-24T12:39:34;99203.44;;;27.51;40.65
78014;BME280;67222;50.182;8.734;2023-07-24T12:41:59;99186.91;;;27.72;41.83
78014;BME280;67222;50.182;8.734;2023-07-24T12:44:25;99195.25;;;27.63;40.52
78014;BME280;67222;50.182;8.734;2023-07-24T12:46:51;99200.22;;;27.21;41.45
78014;BME280;67222;50.182;8.734;2023-07-24T12:49:16;99185.53;;;27.01;42.74
78014;BME280;67222;50.182;8.734;2023-07-24T12:51:41;99178.19;;;27.30;43.72
78014;BME280;67222;50.182;8.734;2023-07-24T12:54:07;99195.75;;;27.29;42.60
78014;BME280;67222;50.182;8.734;2023-07-24T12:56:32;99198.72;;;27.24;42.80
78014;BME280;67222;50.182;8.734;2023-07-24T12:58:57;99198.53;;;27.04;42.13
78014;BME280;67222;50.182;8.734;2023-07-24T13:01:22;99198.72;;;26.63;42.33
78014;BME280;67222;50.182;8.734;2023-07-24T13:03:49;99208.41;;;26.27;42.78
78014;BME280;67222;50.182;8.734;2023-07-24T13:06:14;99195.38;;;26.12;44.92
78014;BME280;67222;50.182;8.734;2023-07-24T13:08:39;99192.75;;;26.03;44.49
78014;BME280;67222;50.182;8.734;2023-07-24T13:11:05;99178.69;;;25.92;45.41
78014;BME280;67222;50.182;8.734;2023-07-24T13:13:30;99177.25;;;25.74;45.06
78014;BME280;67222;50.182;8.734;2023-07-24T13:15:56;99192.41;;;25.63;45.49
78014;BME280;67222;50.182;8.734;2023-07-24T13:18:21;99182.94;;;25.40;46.20
78014;BME280;67222;50.182;8.734;2023-07-24T13:20:46;99195.13;;;25.21;46.29
78014;BME280;67222;50.182;8.734;2023-07-24T13:23:12;99177.94;;;25.21;46.42
78014;BME280;67222;50.182;8.734;2023-07-24T13:25:37;99173.09;;;25.26;46.17
78014;BME280;67222;50.182;8.734;2023-07-24T13:28:02;99150.81;;;25.99;45.32
78014;BME280;67222;50.182;8.734;2023-07-24T13:30:27;99139.22;;;26.72;43.29
78014;BME280;67222;50.182;8.734;2023-07-24T13:32:53;99146.97;;;27.19;44.38
78014;BME280;67222;50.182;8.734;2023-07-24T13:35:18;99125.28;;;28.10;44.20
78014;BME280;67222;50.182;8.734;2023-07-24T13:37:43;99136.03;;;28.30;40.44
78014;BME280;67222;50.182;8.734;2023-07-24T13:40:09;99129.56;;;29.21;38.84
78014;BME280;67222;50.182;8.734;2023-07-24T13:42:34;99120.31;;;29.29;38.77
78014;BME280;67222;50.182;8.734;2023-07-24T13:45:00;99130.56;;;29.32;38.67
78014;BME280;67222;50.182;8.734;2023-07-24T13:47:25;99114.50;;;29.15;38.93
78014;BME280;67222;50.182;8.734;2023-07-24T13:49:50;99110.66;;;29.54;38.70
78014;BME280;67222;50.182;8.734;2023-07-24T13:52:16;99102.66;;;29.11;38.55
78014;BME280;67222;50.182;8.734;2023-07-24T13:54:41;99094.94;;;29.16;40.11
78014;BME280;67222;50.182;8.734;2023-07-24T13:57:06;99091.94;;;28.23;41.41
78014;BME280;67222;50.182;8.734;2023-07-24T13:59:35;99090.84;;;27.53;43.56
78014;BME280;67222;50.182;8.734;2023-07-24T14:02:01;99104.25;;;27.02;43.20
78014;BME280;67222;50.182;8.734;2023-07-24T14:04:26;99097.41;;;26.47;45.34
78014;BME280;67222;50.182;8.734;2023-07-24T14:06:51;99115.22;;;26.08;46.27
78014;BME280;67222;50.182;8.734;2023-07-24T14:09:16;99118.91;;;25.58;55.33
78014;BME280;67222;50.182;8.734;2023-07-24T14:11:42;99140.19;;;24.34;62.79
78014;BME280;67222;50.182;8.734;2023-07-24T14:14:07;99143.81;;;23.57;65.22
78014;BME280;67222;50.182;8.734;2023-07-24T14:16:32;99141.56;;;23.42;66.33
78014;BME280;67222;50.182;8.734;2023-07-24T14:18:58;99117.06;;;23.76;66.94
78014;BME280;67222;50.182;8.734;2023-07-24T14:21:23;99129.66;;;23.98;61.21
78014;BME280;67222;50.182;8.734;2023-07-24T14:23:48;99137.25;;;24.48;63.30
78014;BME280;67222;50.182;8.734;2023-07-24T14:26:14;99131.22;;;25.01;58.71
78014;BME280;67222;50.182;8.734;2023-07-24T14:28:39;99119.44;;;25.51;57.33
78014;BME280;67222;50.182;8.734;2023-07-24T14:31:04;99107.56;;;25.89;58.90
78014;BME280;67222;50.182;8.734;2023-07-24T14:33:30;99124.75;;;25.89;54.99
78014;BME280;67222;50.182;8.734;2023-07-24T14:35:55;99133.91;;;26.18;51.74
78014;BME280;67222;50.182;8.734;2023-07-24T14:38:21;99103.00;;;26.50;53.45
78014;BME280;67222;50.182;8.734;2023-07-24T14:40:46;99109.94;;;26.48;53.66
78014;BME280;67222;50.182;8.734;2023-07-24T14:43:11;99102.97;;;26.38;52.19
78014;BME280;67222;50.182;8.734;2023-07-24T14:45:37;99102.03;;;26.34;52.02
78014;BME280;67222;50.182;8.734;2023-07-24T14:48:02;99100.38;;;26.54;51.80
78014;BME280;67222;50.182;8.734;2023-07-24T14:50:28;99105.88;;;26.21;52.05
78014;BME280;67222;50.182;8.734;2023-07-24T14:52:53;99108.22;;;25.65;53.89
78014;BME280;67222;50.182;8.734;2023-07-24T14:55:19;99115.59;;;25.52;56.63
78014;BME280;67222;50.182;8.734;2023-07-24T14:57:44;99123.38;;;25.42;55.61
78014;BME280;67222;50.182;8.734;2023-07-24T15:00:10;99126.19;;;25.12;58.19
78014;BME280;67222;50.182;8.734;2023-07-24T15:02:35;99116.47;;;24.73;57.49
78014;BME280;67222;50.182;8.734;2023-07-24T15:05:00;99136.59;;;24.51;57.51
78014;BME280;67222;50.182;8.734;2023-07-24T15:07:26;99119.69;;;24.37;58.57
78014;BME280;67222;50.182;8.734;2023-07-24T15:09:51;99109.59;;;24.29;60.00
78014;BME280;67222;50.182;8.734;2023-07-24T15:12:16;99102.56;;;24.10;58.95
78014;BME280;67222;50.182;8.734;2023-07-24T15:14:42;99102.78;;;23.97;58.77
78014;BME280;67222;50.182;8.734;2023-07-24T15:17:07;99098.66;;;23.82;61.45
78014;BME280;67222;50.182;8.734;2023-07-24T15:19:32;99114.66;;;23.75;61.71
78014;BME280;67222;50.182;8.734;2023-07-24T15:21:58;99096.63;;;23.62;63.06
78014;BME280;67222;50.182;8.734;2023-07-24T15:24:23;99074.50;;;23.72;62.54
78014;BME280;67222;50.182;8.734;2023-07-24T15:26:48;99082.00;;;23.75;62.79
78014;BME280;67222;50.182;8.734;2023-07-24T15:29:14;99097.06;;;23.81;60.27
78014;BME280;67222;50.182;8.734;2023-07-24T15:31:43;99100.59;;;23.81;60.07
78014;BME280;67222;50.182;8.734;2023-07-24T15:34:08;99094.97;;;23.86;60.52
78014;BME280;67222;50.182;8.734;2023-07-24T15:36:35;99082.94;;;23.79;58.70
78014;BME280;67222;50.182;8.734;2023-07-24T15:39:02;99102.19;;;23.82;57.97
78014;BME280;67222;50.182;8.734;2023-07-24T15:41:29;99116.13;;;23.81;57.74
78014;BME280;67222;50.182;8.734;2023-07-24T15:43:55;99120.44;;;23.73;57.58
78014;BME280;67222;50.182;8.734;2023-07-24T15:46:20;99129.09;;;23.67;56.97
78014;BME280;67222;50.182;8.734;2023-07-24T15:48:45;99140.28;;;23.48;60.15
78014;BME280;67222;50.182;8.734;2023-07-24T15:51:10;99149.25;;;23.31;66.65
78014;BME280;67222;50.182;8.734;2023-07-24T15:53:36;99140.59;;;22.24;70.36
78014;BME280;67222;50.182;8.734;2023-07-24T15:56:01;99163.97;;;21.66;73.78
78014;BME280;67222;50.182;8.734;2023-07-24T15:58:26;99161.25;;;21.44;75.08
78014;BME280;67222;50.182;8.734;2023-07-24T16:00:52;99156.31;;;21.46;76.86
78014;BME280;67222;50.182;8.734;2023-07-24T16:03:17;99158.88;;;21.29;77.65
78014;BME280;67222;50.182;8.734;2023-07-24T16:05:42;99168.13;;;21.28;77.28
78014;BME280;67222;50.182;8.734;2023-07-24T16:08:07;99159.38;;;21.31;77.86
78014;BME280;67222;50.182;8.734;2023-07-24T16:10:33;99143.38;;;21.43;76.95
78014;BME280;67222;50.182;8.734;2023-07-24T16:12:58;99150.84;;;21.60;77.25
78014;BME280;67222;50.182;8.734;2023-07-24T16:15:23;99143.53;;;21.60;74.73
78014;BME280;67222;50.182;8.734;2023-07-24T16:17:49;99149.25;;;21.81;77.46
78014;BME280;67222;50.182;8.734;2023-07-24T16:20:14;99148.81;;;21.88;74.16
78014;BME280;67222;50.182;8.734;2023-07-24T16:22:39;99154.25;;;21.88;73.63
78014;BME280;67222;50.182;8.734;2023-07-24T16:25:05;99151.03;;;21.86;73.52
78014;BME280;67222;50.182;8.734;2023-07-24T16:27:30;99153.50;;;21.96;72.73
78014;BME280;67222;50.182;8.734;2023-07-24T16:29:56;99151.22;;;22.12;72.69
78014;BME280;67222;50.182;8.734;2023-07-24T16:32:21;99156.78;;;22.06;70.88
78014;BME280;67222;50.182;8.734;2023-07-24T16:34:47;99164.38;;;22.18;71.95
78014;BME280;67222;50.182;8.734;2023-07-24T16:37:12;99171.13;;;22.29;70.35
78014;BME280;67222;50.182;8.734;2023-07-24T16:39:38;99157.91;;;22.36;69.40
78014;BME280;67222;50.182;8.734;2023-07-24T16:42:04;99164.81;;;22.43;68.89
78014;BME280;67222;50.182;8.734;2023-07-24T16:44:29;99171.53;;;22.45;67.23
78014;BME280;67222;50.182;8.734;2023-07-24T16:46:55;99170.09;;;22.48;68.18
78014;BME280;67222;50.182;8.734;2023-07-24T16:49:20;99162.75;;;22.48;68.08
78014;BME280;67222;50.182;8.734;2023-07-24T16:51:45;99163.75;;;22.61;66.53
78014;BME280;67222;50.182;8.734;2023-07-24T16:54:11;99175.13;;;22.63;67.15
78014;BME280;67222;50.182;8.734;2023-07-24T16:56:36;99179.25;;;22.52;66.71
78014;BME280;67222;50.182;8.734;2023-07-24T16:59:01;99179.72;;;22.54;65.64
78014;BME280;67222;50.182;8.734;2023-07-24T17:01:27;99180.94;;;22.48;65.49
78014;BME280;67222;50.182;8.734;2023-07-24T17:03:52;99191.06;;;22.56;65.90
78014;BME280;67222;50.182;8.734;2023-07-24T17:06:17;99189.16;;;22.56;65.83
78014;BME280;67222;50.182;8.734;2023-07-24T17:08:43;99179.91;;;22.57;65.32
78014;BME280;67222;50.182;8.734;2023-07-24T17:11:08;99199.72;;;22.58;59.77
78014;BME280;67222;50.182;8.734;2023-07-24T17:13:33;99197.47;;;22.60;60.68
78014;BME280;67222;50.182;8.734;2023-07-24T17:15:59;99192.50;;;22.53;62.00
78014;BME280;67222;50.182;8.734;2023-07-24T17:18:24;99191.72;;;22.53;56.54
78014;BME280;67222;50.182;8.734;2023-07-24T17:20:50;99200.50;;;22.58;54.04
78014;BME280;67222;50.182;8.734;2023-07-24T17:23:15;99198.78;;;22.62;52.71
78014;BME280;67222;50.182;8.734;2023-07-24T17:25:40;99195.63;;;22.69;53.02